Flight Track Log - Related Links

Times and Time Zones

All times are in EDT time to prevent confusion due to time zone crossing. See the CHQ4377 flight status page for this flight to view local times or setup timezone preferences in your user account.

Time Position Orientation Groundspeed Altitude Reporting Facility
EDT Latitude Longitude Course Direction KTS MPH feet Rate Location/Type
Sat 03:46:00 PM 44.2876 -88.1115 176° South  Level Estimated
Sat 03:47:00 PM 44.2219 -88.1054 176° South  Level Estimated
Sat 03:48:00 PM 44.1562 -88.0994 176° South  Level Estimated
Sat 03:49:00 PM 44.0906 -88.0934 176° South  Level Estimated
Sat 03:50:00 PM 44.0249 -88.0873 176° South  Level Estimated
Sat 03:51:00 PM 43.9592 -88.0814 176° South  Level Estimated
Sat 03:52:00 PM 43.8935 -88.0754 176° South  Level Estimated
Sat 03:53:00 PM 43.8279 -88.0694 176° South  Level Estimated
Sat 03:54:00 PM 43.7622 -88.0634 176° South  Level Estimated
Sat 03:55:00 PM 43.6965 -88.0575 176° South  Level Estimated
Sat 03:56:00 PM 43.6308 -88.0516 176° South  Level Estimated
Sat 03:57:00 PM 43.5651 -88.0456 176° South  Level Estimated
Sat 03:58:00 PM 43.4995 -88.0397 176° South  Level Estimated
Sat 03:59:00 PM 43.4338 -88.0338 176° South  Level Estimated
Sat 04:00:00 PM 43.3681 -88.0279 176° South  Level Estimated
Sat 04:01:00 PM 43.3024 -88.0221 176° South  Level Estimated
Sat 04:02:00 PM 43.2367 -88.0162 176° South  Level Estimated
Sat 04:03:00 PM 43.1711 -88.0104 176° South  Level Estimated
Sat 04:04:00 PM 43.1054 -88.0045 176° South  Level Estimated
Sat 04:05:00 PM 43.0397 -87.9987 176° South  Level Estimated
Sat 04:06:00 PM 42.9740 -87.9929 176° South  Level Estimated
Sat 04:07:00 PM 42.9083 -87.9871 176° South  Level Estimated
Sat 04:08:00 PM 42.8427 -87.9814 176° South  Level Estimated
Sat 04:09:00 PM 42.7770 -87.9756 176° South  Level Estimated
Sat 04:10:00 PM 42.7113 -87.9698 176° South  Level Estimated
Sat 04:11:00 PM 42.6357 -87.9632 176° South  Level Estimated
Sat 04:12:00 PM 42.5600 -87.9566 176° South  Level Estimated
Sat 04:13:00 PM 42.4887 -87.9504 176° South  Level Estimated
Sat 04:14:00 PM 42.4174 -87.9442 176° South  Level Estimated
Sat 04:15:00 PM 42.3417 -87.9377 176° South  Level Estimated
Sat 04:16:00 PM 42.2661 -87.9311 176° South  Level Estimated
Sat 04:17:00 PM 42.1904 -87.9246 176° South  Level Estimated
Sat 04:18:00 PM 42.1148 -87.9181 176° South  Level Estimated
Sat 04:19:00 PM 42.0392 -87.9116 176° South  Level Estimated
Sat 04:20:00 PM 41.9817 -87.9067 176° South  Level Estimated
Sat 04:21:00 PM 41.9817 -87.9067 217° Southwest  Level Estimated
Sat 04:22:00 PM 41.9817 -87.9067 217° Southwest  Level Estimated
Sat 04:23:00 PM 41.9817 -87.9067 217° Southwest  Level Estimated

Login

Don't have an account? Register now (free) for customized features, flight alerts, and more!